createdAt,value
2019-05-23T00:00:32.004Z,87474.36
2019-05-23T00:02:58.776Z,87476.34
2019-05-23T00:05:25.642Z,87473.53
2019-05-23T00:07:52.493Z,87469.59
2019-05-23T00:10:20.115Z,87475.19
2019-05-23T00:12:49.142Z,87474.05
2019-05-23T00:15:26.749Z,87480.70
2019-05-23T00:17:53.720Z,87478.63
2019-05-23T00:20:20.704Z,87474.11
2019-05-23T00:22:47.520Z,87476.67
2019-05-23T00:25:15.322Z,87475.72
2019-05-23T00:27:43.731Z,87478.90
2019-05-23T00:30:11.456Z,87478.10
2019-05-23T00:32:38.440Z,87480.88
2019-05-23T00:35:06.697Z,87477.85
2019-05-23T00:37:33.644Z,87478.15
2019-05-23T00:40:00.739Z,87479.47
2019-05-23T00:42:29.263Z,87482.23
2019-05-23T00:44:56.212Z,87480.67
2019-05-23T00:47:23.497Z,87474.33
2019-05-23T00:49:50.238Z,87473.92
2019-05-23T00:52:16.974Z,87476.84
2019-05-23T00:54:44.155Z,87476.81
2019-05-23T00:57:10.901Z,87481.56
2019-05-23T00:59:38.122Z,87482.81
2019-05-23T01:02:05.057Z,87476.56
2019-05-23T01:04:31.985Z,87483.67
2019-05-23T01:06:59.254Z,87485.28
2019-05-23T01:09:26.056Z,87478.36
2019-05-23T01:11:53.262Z,87479.02
2019-05-23T01:14:20.600Z,87485.17
2019-05-23T01:16:47.595Z,87488.95
2019-05-23T01:19:14.854Z,87479.77
2019-05-23T01:21:41.687Z,87481.98
2019-05-23T01:24:08.535Z,87474.81
2019-05-23T01:26:35.265Z,87477.94
2019-05-23T01:29:02.293Z,87479.03
2019-05-23T01:31:29.387Z,87478.08
2019-05-23T01:33:56.105Z,87473.52
2019-05-23T01:36:23.072Z,87473.84
2019-05-23T01:38:50.260Z,87470.86
2019-05-23T01:41:17.007Z,87468.09
2019-05-23T01:43:44.109Z,87470.25
2019-05-23T01:46:11.170Z,87473.05
2019-05-23T01:48:37.960Z,87474.03
2019-05-23T01:51:05.650Z,87478.63
2019-05-23T01:53:32.567Z,87482.23
2019-05-23T01:55:59.245Z,87476.48
2019-05-23T01:58:26.184Z,87471.03
2019-05-23T02:00:52.977Z,87475.60
2019-05-23T02:03:20.011Z,87472.84
2019-05-23T02:05:46.730Z,87473.86
2019-05-23T02:08:14.230Z,87472.95
2019-05-23T02:10:41.167Z,87470.88
2019-05-23T02:13:09.355Z,87470.62
2019-05-23T02:15:36.225Z,87474.10
2019-05-23T02:18:03.784Z,87473.76
2019-05-23T02:20:30.511Z,87471.64
2019-05-23T02:22:57.450Z,87476.52
2019-05-23T02:25:25.695Z,87469.92
2019-05-23T02:27:52.633Z,87470.61
2019-05-23T02:30:34.301Z,87467.22
2019-05-23T02:32:50.400Z,87470.06
2019-05-23T02:35:17.821Z,87466.27
2019-05-23T02:37:44.811Z,87469.44
2019-05-23T02:40:12.138Z,87469.70
2019-05-23T02:42:38.979Z,87472.00
2019-05-23T02:45:07.186Z,87476.89
2019-05-23T02:47:35.313Z,87474.00
2019-05-23T02:50:05.751Z,87477.88
2019-05-23T02:52:43.782Z,87477.26
2019-05-23T02:55:24.712Z,87480.92
2019-05-23T02:57:51.906Z,87469.95
2019-05-23T03:00:53.593Z,87473.97
2019-05-23T03:03:14.540Z,87470.53
2019-05-23T03:05:41.273Z,87466.33
2019-05-23T03:08:09.627Z,87463.44
2019-05-23T03:11:03.486Z,87465.64
2019-05-23T03:13:31.305Z,87465.78
2019-05-23T03:15:58.545Z,87465.64
2019-05-23T03:18:27.411Z,87465.91
2019-05-23T03:20:54.166Z,87463.10
2019-05-23T03:23:21.333Z,87462.66
2019-05-23T03:26:02.660Z,87459.17
2019-05-23T03:28:39.185Z,87459.44
2019-05-23T03:31:26.445Z,87456.12
2019-05-23T03:33:34.610Z,87449.57
2019-05-23T03:36:01.455Z,87453.22
2019-05-23T03:38:28.259Z,87453.39
2019-05-23T03:40:54.972Z,87457.64
2019-05-23T03:43:22.101Z,87450.81
2019-05-23T03:45:48.963Z,87454.47
2019-05-23T03:48:16.414Z,87456.61
2019-05-23T03:50:44.010Z,87452.90
2019-05-23T03:53:11.105Z,87461.92
2019-05-23T03:55:38.331Z,87457.99
2019-05-23T03:58:05.257Z,87453.30
2019-05-23T04:00:33.433Z,87452.53
2019-05-23T04:03:01.175Z,87454.69
2019-05-23T04:05:29.337Z,87457.17
2019-05-23T04:07:56.340Z,87453.92
2019-05-23T04:10:23.638Z,87456.95
2019-05-23T04:12:50.852Z,87458.39
2019-05-23T04:15:17.746Z,87465.49
2019-05-23T04:17:44.582Z,87471.01
2019-05-23T04:20:11.792Z,87466.95
2019-05-23T04:22:38.681Z,87460.41
2019-05-23T04:25:07.165Z,87460.11
2019-05-23T04:27:34.116Z,87456.41
2019-05-23T04:30:01.109Z,87467.29
2019-05-23T04:32:27.944Z,87465.44
2019-05-23T04:34:54.679Z,87465.49
2019-05-23T04:37:21.478Z,87462.96
2019-05-23T04:39:48.383Z,87461.98
2019-05-23T04:42:15.261Z,87466.67
2019-05-23T04:44:44.388Z,87462.96
2019-05-23T04:47:11.063Z,87463.65
2019-05-23T04:49:37.772Z,87467.22
2019-05-23T04:52:04.869Z,87463.37
2019-05-23T04:54:31.695Z,87465.28
2019-05-23T04:56:58.729Z,87461.98
2019-05-23T04:59:25.525Z,87465.50
2019-05-23T05:01:54.180Z,87469.78
2019-05-23T05:04:22.704Z,87461.03
2019-05-23T05:06:49.621Z,87467.22
2019-05-23T05:09:16.351Z,87466.05
2019-05-23T05:11:43.094Z,87469.70
2019-05-23T05:14:09.890Z,87464.34
2019-05-23T05:16:36.712Z,87460.81
2019-05-23T05:19:03.530Z,87462.94
2019-05-23T05:21:31.042Z,87463.48
2019-05-23T05:23:58.075Z,87458.11
2019-05-23T05:26:24.844Z,87459.15
2019-05-23T05:28:51.872Z,87453.95
2019-05-23T05:31:19.283Z,87451.83
2019-05-23T05:33:46.046Z,87454.91
2019-05-23T05:36:13.214Z,87451.32
2019-05-23T05:38:39.939Z,87445.80
2019-05-23T05:41:06.852Z,87446.47
2019-05-23T05:43:33.752Z,87447.83
2019-05-23T05:46:00.457Z,87445.88
2019-05-23T05:48:29.213Z,87453.67
2019-05-23T05:50:56.408Z,87457.37
2019-05-23T05:53:23.137Z,87454.45
2019-05-23T05:55:49.869Z,87453.66
2019-05-23T05:58:16.746Z,87452.37
2019-05-23T06:00:43.480Z,87450.51
2019-05-23T06:03:10.198Z,87452.63
2019-05-23T06:05:37.183Z,87453.07
2019-05-23T06:08:04.831Z,87454.37
2019-05-23T06:10:31.680Z,87447.78
2019-05-23T06:13:04.828Z,87449.83
2019-05-23T06:15:31.672Z,87440.25
2019-05-23T06:17:58.385Z,87438.53
2019-05-23T06:20:27.894Z,87441.16
2019-05-23T06:22:54.635Z,87439.05
2019-05-23T06:25:22.043Z,87438.28
2019-05-23T06:27:48.892Z,87434.27
2019-05-23T06:30:18.089Z,87437.97
2019-05-23T06:32:45.011Z,87426.80
2019-05-23T06:35:12.497Z,87434.65
2019-05-23T06:37:39.573Z,87432.50
2019-05-23T06:40:07.075Z,87433.33
2019-05-23T06:42:33.883Z,87430.20
2019-05-23T06:45:00.609Z,87428.38
2019-05-23T06:47:27.358Z,87430.33
2019-05-23T06:49:54.226Z,87427.00
2019-05-23T06:52:21.061Z,87424.63
2019-05-23T06:54:47.795Z,87422.95
2019-05-23T06:57:14.747Z,87423.20
2019-05-23T06:59:41.600Z,87418.13
2019-05-23T07:02:08.341Z,87428.12
2019-05-23T07:04:35.335Z,87427.41
2019-05-23T07:07:02.166Z,87435.33
2019-05-23T07:09:29.212Z,87428.39
2019-05-23T07:11:58.819Z,87426.34
2019-05-23T07:14:26.065Z,87428.08
2019-05-23T07:16:52.804Z,87424.92
2019-05-23T07:19:20.394Z,87419.84
2019-05-23T07:21:47.432Z,87420.97
2019-05-23T07:24:14.180Z,87419.85
2019-05-23T07:26:41.114Z,87417.41
2019-05-23T07:29:10.358Z,87413.81
2019-05-23T07:31:37.395Z,87415.31
2019-05-23T07:34:04.426Z,87412.88
2019-05-23T07:36:31.183Z,87411.53
2019-05-23T07:38:57.932Z,87410.59
2019-05-23T07:41:24.933Z,87407.58
2019-05-23T07:43:51.984Z,87409.28
2019-05-23T07:46:18.872Z,87413.41
2019-05-23T07:48:45.829Z,87409.98
2019-05-23T07:51:12.854Z,87411.09
2019-05-23T07:53:39.898Z,87412.03
2019-05-23T07:56:06.694Z,87412.40
2019-05-23T07:58:33.440Z,87418.41
2019-05-23T08:01:00.177Z,87418.20
2019-05-23T08:03:30.981Z,87414.03
2019-05-23T08:05:57.798Z,87408.36
2019-05-23T08:08:24.670Z,87407.20
2019-05-23T08:10:51.672Z,87399.25
2019-05-23T08:13:18.534Z,87397.30
2019-05-23T08:15:45.655Z,87403.33
2019-05-23T08:18:12.744Z,87396.31
2019-05-23T08:20:39.647Z,87401.94
2019-05-23T08:23:06.393Z,87399.52
2019-05-23T08:25:33.555Z,87398.89
2019-05-23T08:28:00.316Z,87396.05
2019-05-23T08:30:27.059Z,87402.50
2019-05-23T08:32:54.254Z,87403.36
2019-05-23T08:35:21.403Z,87396.30
2019-05-23T08:37:48.136Z,87402.00
2019-05-23T08:40:15.234Z,87391.96
2019-05-23T08:42:43.061Z,87396.98
2019-05-23T08:45:10.079Z,87397.69
2019-05-23T08:47:37.051Z,87391.38
2019-05-23T08:50:08.251Z,87387.16
2019-05-23T08:52:34.955Z,87384.06
2019-05-23T08:55:21.710Z,87386.12
2019-05-23T08:57:48.830Z,87384.02
2019-05-23T09:00:16.217Z,87376.78
2019-05-23T09:02:44.483Z,87373.97
2019-05-23T09:05:11.394Z,87382.47
2019-05-23T09:07:38.119Z,87378.28
2019-05-23T09:10:05.108Z,87371.25
2019-05-23T09:12:32.922Z,87379.35
2019-05-23T09:14:59.659Z,87373.79
2019-05-23T09:17:26.736Z,87362.14
2019-05-23T09:19:53.480Z,87364.77
2019-05-23T09:22:20.202Z,87355.91
2019-05-23T09:24:47.222Z,87351.64
2019-05-23T09:27:13.953Z,87353.87
2019-05-23T09:29:40.818Z,87353.95
2019-05-23T09:32:07.915Z,87347.39
2019-05-23T09:34:34.625Z,87349.00
2019-05-23T09:37:01.448Z,87346.80
2019-05-23T09:39:28.429Z,87346.62
2019-05-23T09:41:55.342Z,87345.86
2019-05-23T09:44:22.091Z,87341.28
2019-05-23T09:46:48.946Z,87342.74
2019-05-23T09:49:15.837Z,87348.92
2019-05-23T09:51:42.576Z,87335.34
2019-05-23T09:54:10.491Z,87337.94
2019-05-23T09:56:37.242Z,87326.37
2019-05-23T09:59:04.058Z,87340.95
2019-05-23T10:01:31.363Z,87338.13
2019-05-23T10:03:58.081Z,87331.33
2019-05-23T10:06:24.896Z,87328.41
2019-05-23T10:08:51.693Z,87332.11
2019-05-23T10:11:18.422Z,87327.14
2019-05-23T10:13:45.313Z,87324.48
2019-05-23T10:16:12.245Z,87323.28
2019-05-23T10:18:38.946Z,87315.02
2019-05-23T10:21:05.772Z,87321.50
2019-05-23T10:23:32.879Z,87316.46
2019-05-23T10:25:59.603Z,87309.06
2019-05-23T10:28:40.808Z,87310.23
2019-05-23T10:31:07.525Z,87306.40
2019-05-23T10:33:34.270Z,87300.30
2019-05-23T10:36:01.446Z,87294.43
2019-05-23T10:38:48.245Z,87294.83
2019-05-23T10:41:15.257Z,87297.70
2019-05-23T10:43:42.064Z,87291.70
2019-05-23T10:46:08.986Z,87293.98
2019-05-23T10:48:36.127Z,87291.25
2019-05-23T10:51:02.809Z,87296.15
2019-05-23T10:53:29.530Z,87288.98
2019-05-23T10:55:56.447Z,87296.23
2019-05-23T10:58:23.227Z,87288.38
2019-05-23T11:00:49.939Z,87283.58
2019-05-23T11:03:17.189Z,87294.23
2019-05-23T11:05:44.186Z,87286.02
2019-05-23T11:08:11.237Z,87276.02
2019-05-23T11:10:38.928Z,87282.95
2019-05-23T11:13:06.038Z,87273.14
2019-05-23T11:15:33.144Z,87270.88
2019-05-23T11:18:00.435Z,87268.62
2019-05-23T11:20:27.258Z,87261.92
2019-05-23T11:22:53.988Z,87258.96
2019-05-23T11:25:21.359Z,87260.58
2019-05-23T11:27:48.201Z,87253.72
2019-05-23T11:30:15.765Z,87253.52
2019-05-23T11:32:42.672Z,87255.46
2019-05-23T11:35:10.107Z,87254.38
2019-05-23T11:37:36.809Z,87246.98
2019-05-23T11:40:06.218Z,87248.75
2019-05-23T11:42:32.937Z,87245.66
2019-05-23T11:44:59.799Z,87248.72
2019-05-23T11:47:31.003Z,87244.35
2019-05-23T11:49:56.186Z,87245.69
2019-05-23T11:52:24.889Z,87247.66
2019-05-23T11:54:52.512Z,87247.30
2019-05-23T11:57:19.903Z,87249.83
2019-05-23T11:59:46.771Z,87246.88
2019-05-23T12:02:17.725Z,87249.48
2019-05-23T12:04:44.496Z,87241.25
2019-05-23T12:07:11.347Z,87238.58
2019-05-23T12:09:38.336Z,87230.58
2019-05-23T12:12:05.185Z,87232.66
2019-05-23T12:14:32.085Z,87233.09
2019-05-23T12:16:58.976Z,87227.58
2019-05-23T12:19:25.771Z,87226.86
2019-05-23T12:21:52.624Z,87223.34
2019-05-23T12:24:20.062Z,87222.23
2019-05-23T12:26:46.772Z,87221.30
2019-05-23T12:29:13.590Z,87222.22
2019-05-23T12:31:40.667Z,87226.81
2019-05-23T12:34:07.451Z,87221.23
2019-05-23T12:36:34.178Z,87217.45
2019-05-23T12:39:01.121Z,87211.03
2019-05-23T12:41:27.879Z,87212.48
2019-05-23T12:43:54.819Z,87214.92
2019-05-23T12:46:21.667Z,87211.49
2019-05-23T12:48:51.277Z,87206.64
2019-05-23T12:51:18.188Z,87203.45
2019-05-23T12:53:46.139Z,87205.52
2019-05-23T12:56:12.971Z,87201.03
2019-05-23T12:58:39.672Z,87200.35
2019-05-23T13:01:06.467Z,87196.98
2019-05-23T13:03:34.643Z,87196.66
2019-05-23T13:06:01.372Z,87192.75
2019-05-23T13:08:28.439Z,87189.56
2019-05-23T13:10:55.782Z,87193.78
2019-05-23T13:13:23.013Z,87196.02
2019-05-23T13:15:49.898Z,87194.77
2019-05-23T13:18:16.907Z,87192.18
2019-05-23T13:20:43.856Z,87191.11
2019-05-23T13:23:19.545Z,87186.09
2019-05-23T13:25:39.459Z,87188.98
2019-05-23T13:28:06.680Z,87180.47
2019-05-23T13:30:33.815Z,87180.30
2019-05-23T13:33:03.600Z,87171.73
2019-05-23T13:35:29.436Z,87169.14
2019-05-23T13:37:56.221Z,87171.97
2019-05-23T13:40:22.948Z,87170.80
2019-05-23T13:42:49.668Z,87165.25
2019-05-23T13:45:17.436Z,87172.22
2019-05-23T13:47:44.278Z,87170.73
2019-05-23T13:50:11.301Z,87169.67
2019-05-23T13:52:38.189Z,87174.41
2019-05-23T13:55:05.702Z,87167.34
2019-05-23T13:57:32.417Z,87166.37
2019-05-23T13:59:59.297Z,87166.45
2019-05-23T14:02:26.002Z,87169.17
2019-05-23T14:04:52.826Z,87157.75
2019-05-23T14:07:19.811Z,87155.03
2019-05-23T14:09:46.630Z,87158.37
2019-05-23T14:12:21.826Z,87158.50
2019-05-23T14:14:42.038Z,87156.11
2019-05-23T14:17:09.052Z,87162.59
2019-05-23T14:19:35.767Z,87169.20
2019-05-23T14:22:02.941Z,87166.87
2019-05-23T14:24:29.663Z,87164.69
2019-05-23T14:26:56.364Z,87166.84
2019-05-23T14:29:23.357Z,87167.53
2019-05-23T14:31:50.069Z,87159.26
2019-05-23T14:34:16.865Z,87162.20
2019-05-23T14:36:43.747Z,87163.55
2019-05-23T14:39:10.979Z,87157.61
2019-05-23T14:41:45.059Z,87154.14
2019-05-23T14:44:06.674Z,87146.80
2019-05-23T14:46:33.418Z,87144.59
2019-05-23T14:49:00.444Z,87146.17
2019-05-23T14:51:35.214Z,87143.13
2019-05-23T14:54:11.469Z,87147.55
2019-05-23T14:56:38.354Z,87140.50
2019-05-23T14:59:05.073Z,87135.55
2019-05-23T15:01:31.815Z,87135.28
2019-05-23T15:03:58.902Z,87133.77
2019-05-23T15:06:25.639Z,87129.93
2019-05-23T15:08:52.573Z,87138.54
2019-05-23T15:11:19.491Z,87140.42
2019-05-23T15:13:46.205Z,87142.03
2019-05-23T15:16:13.023Z,87138.29
2019-05-23T15:18:40.157Z,87142.59
2019-05-23T15:21:06.979Z,87148.00
2019-05-23T15:23:34.105Z,87145.57
2019-05-23T15:26:01.000Z,87141.50
2019-05-23T15:28:27.732Z,87148.52
2019-05-23T15:30:54.451Z,87136.84
2019-05-23T15:33:21.315Z,87143.35
2019-05-23T15:35:48.192Z,87140.42
2019-05-23T15:38:15.013Z,87137.95
2019-05-23T15:40:42.292Z,87141.00
2019-05-23T15:43:10.035Z,87147.05
2019-05-23T15:45:37.419Z,87139.92
2019-05-23T15:48:04.783Z,87148.23
2019-05-23T15:50:31.509Z,87147.44
2019-05-23T15:52:58.371Z,87145.22
2019-05-23T15:55:25.738Z,87154.80
2019-05-23T15:57:52.470Z,87152.02
2019-05-23T16:00:19.825Z,87149.81
2019-05-23T16:02:46.789Z,87161.38
2019-05-23T16:05:13.529Z,87155.66
2019-05-23T16:07:40.670Z,87158.86
2019-05-23T16:10:07.869Z,87160.22
2019-05-23T16:12:34.679Z,87160.73
2019-05-23T16:15:01.490Z,87163.45
2019-05-23T16:17:28.351Z,87155.67
2019-05-23T16:19:55.074Z,87164.50
2019-05-23T16:22:21.837Z,87164.88
2019-05-23T16:24:48.818Z,87159.75
2019-05-23T16:27:17.314Z,87152.61
2019-05-23T16:29:44.052Z,87154.12
2019-05-23T16:32:10.931Z,87146.78
2019-05-23T16:34:37.663Z,87149.87
2019-05-23T16:37:04.617Z,87148.93
2019-05-23T16:39:45.782Z,87149.14
2019-05-23T16:42:00.207Z,87144.77
2019-05-23T16:44:31.614Z,87151.82
2019-05-23T16:46:58.678Z,87147.74
2019-05-23T16:49:25.513Z,87150.77
2019-05-23T16:51:52.218Z,87152.87
2019-05-23T16:54:19.232Z,87152.06
2019-05-23T16:56:45.959Z,87158.27
2019-05-23T16:59:12.817Z,87152.39
2019-05-23T17:01:54.870Z,87164.94
2019-05-23T17:04:11.035Z,87159.81
2019-05-23T17:06:38.094Z,87160.04
2019-05-23T17:09:06.463Z,87166.80
2019-05-23T17:11:33.240Z,87163.59
2019-05-23T17:13:59.956Z,87164.42
2019-05-23T17:16:26.749Z,87169.11
2019-05-23T17:18:53.562Z,87167.41
2019-05-23T17:21:21.082Z,87162.50
2019-05-23T17:23:47.826Z,87167.16
2019-05-23T17:26:14.637Z,87171.52
2019-05-23T17:28:41.580Z,87165.54
2019-05-23T17:31:08.411Z,87165.05
2019-05-23T17:33:37.085Z,87172.55
2019-05-23T17:36:04.038Z,87168.55
2019-05-23T17:38:30.853Z,87168.42
2019-05-23T17:40:57.539Z,87171.30
2019-05-23T17:43:24.949Z,87169.84
2019-05-23T17:45:51.822Z,87171.05
2019-05-23T17:48:18.615Z,87173.77
2019-05-23T17:50:45.547Z,87178.14
2019-05-23T17:53:12.361Z,87183.99
2019-05-23T17:55:39.075Z,87187.02
2019-05-23T17:58:06.255Z,87192.23
2019-05-23T18:00:33.171Z,87194.91
2019-05-23T18:02:59.946Z,87193.50
2019-05-23T18:05:26.991Z,87196.49
2019-05-23T18:07:56.987Z,87205.68
2019-05-23T18:10:23.682Z,87201.86
2019-05-23T18:12:50.553Z,87211.03
2019-05-23T18:15:17.494Z,87209.37
2019-05-23T18:17:44.219Z,87217.45
2019-05-23T18:20:12.527Z,87221.53
2019-05-23T18:22:39.206Z,87216.12
2019-05-23T18:25:06.554Z,87218.09
2019-05-23T18:27:33.429Z,87224.13
2019-05-23T18:30:00.688Z,87222.19
2019-05-23T18:32:27.510Z,87228.09
2019-05-23T18:34:54.675Z,87229.47
2019-05-23T18:37:22.021Z,87240.02
2019-05-23T18:39:48.801Z,87234.73
2019-05-23T18:42:15.685Z,87238.34
2019-05-23T18:44:42.392Z,87237.98
2019-05-23T18:47:09.133Z,87243.24
2019-05-23T18:49:36.099Z,87250.86
2019-05-23T18:52:03.237Z,87253.73
2019-05-23T18:54:29.963Z,87262.02
2019-05-23T18:56:56.811Z,87268.14
2019-05-23T18:59:23.550Z,87268.78
2019-05-23T19:01:50.279Z,87270.53
2019-05-23T19:04:17.146Z,87274.05
2019-05-23T19:06:44.186Z,87277.42
2019-05-23T19:09:11.032Z,87280.22
2019-05-23T19:11:38.816Z,87282.78
2019-05-23T19:14:05.539Z,87288.30
2019-05-23T19:16:32.278Z,87297.12
2019-05-23T19:18:59.281Z,87296.23
2019-05-23T19:21:26.098Z,87304.04
2019-05-23T19:23:52.821Z,87304.95
2019-05-23T19:26:20.399Z,87308.23
2019-05-23T19:28:47.128Z,87306.98
2019-05-23T19:31:14.158Z,87313.36
2019-05-23T19:33:41.162Z,87319.17
2019-05-23T19:36:07.943Z,87315.14
2019-05-23T19:38:34.716Z,87318.08
2019-05-23T19:41:02.893Z,87322.39
2019-05-23T19:43:29.718Z,87323.44
2019-05-23T19:45:56.631Z,87318.81
2019-05-23T19:48:23.524Z,87322.08
2019-05-23T19:50:50.251Z,87327.24
2019-05-23T19:53:17.072Z,87330.13
2019-05-23T19:55:44.332Z,87323.76
2019-05-23T19:58:11.068Z,87324.62
2019-05-23T20:00:37.763Z,87333.34
2019-05-23T20:03:24.371Z,87330.54
2019-05-23T20:05:52.090Z,87336.44
2019-05-23T20:08:18.818Z,87333.08
2019-05-23T20:10:46.150Z,87339.35
2019-05-23T20:13:12.945Z,87345.25
2019-05-23T20:15:39.766Z,87341.48
2019-05-23T20:18:06.794Z,87352.12
2019-05-23T20:20:34.887Z,87357.65
2019-05-23T20:23:01.620Z,87361.46
2019-05-23T20:25:28.634Z,87363.62
2019-05-23T20:27:55.517Z,87361.01
2019-05-23T20:30:46.465Z,87363.32
2019-05-23T20:33:13.568Z,87364.48
2019-05-23T20:35:40.412Z,87361.72
2019-05-23T20:38:07.785Z,87363.20
2019-05-23T20:40:34.718Z,87366.08
2019-05-23T20:43:02.670Z,87363.27
2019-05-23T20:45:29.787Z,87366.31
2019-05-23T20:47:56.569Z,87367.88
2019-05-23T20:50:23.422Z,87370.33
2019-05-23T20:52:50.279Z,87372.25
2019-05-23T20:55:17.007Z,87369.05
2019-05-23T20:57:43.711Z,87370.00
2019-05-23T21:00:11.100Z,87370.78
2019-05-23T21:02:37.809Z,87377.56
2019-05-23T21:05:05.739Z,87380.80
2019-05-23T21:07:32.625Z,87375.33
2019-05-23T21:09:59.472Z,87380.78
2019-05-23T21:12:30.204Z,87377.39
2019-05-23T21:14:54.868Z,87380.61
2019-05-23T21:17:21.602Z,87376.27
2019-05-23T21:19:48.301Z,87378.35
2019-05-23T21:22:15.385Z,87382.50
2019-05-23T21:24:42.087Z,87380.99
2019-05-23T21:27:08.812Z,87384.94
2019-05-23T21:29:35.688Z,87378.52
2019-05-23T21:32:02.563Z,87377.77
2019-05-23T21:34:29.201Z,87384.89
2019-05-23T21:36:56.087Z,87379.05
2019-05-23T21:39:22.783Z,87381.67
2019-05-23T21:41:49.546Z,87385.26
2019-05-23T21:44:16.526Z,87385.23
2019-05-23T21:46:43.262Z,87382.96
2019-05-23T21:49:09.949Z,87387.86
2019-05-23T21:51:36.911Z,87388.42
2019-05-23T21:54:03.640Z,87391.23
2019-05-23T21:56:30.375Z,87384.64
2019-05-23T21:58:57.231Z,87394.44
2019-05-23T22:01:24.330Z,87386.50
2019-05-23T22:03:51.874Z,87394.03
2019-05-23T22:06:20.064Z,87392.52
2019-05-23T22:08:46.780Z,87393.63
2019-05-23T22:11:13.607Z,87400.40
2019-05-23T22:13:40.442Z,87393.22
2019-05-23T22:16:07.564Z,87393.05
2019-05-23T22:18:34.708Z,87395.86
2019-05-23T22:21:01.580Z,87394.52
2019-05-23T22:23:28.308Z,87389.20
2019-05-23T22:25:55.125Z,87389.00
2019-05-23T22:28:22.014Z,87389.55
2019-05-23T22:30:48.721Z,87393.86
2019-05-23T22:33:15.751Z,87389.14
2019-05-23T22:35:42.643Z,87393.05
2019-05-23T22:38:09.477Z,87393.78
2019-05-23T22:40:38.575Z,87396.03
2019-05-23T22:43:18.656Z,87393.17
2019-05-23T22:45:33.909Z,87396.92
2019-05-23T22:48:00.618Z,87394.80
2019-05-23T22:50:30.644Z,87395.73
2019-05-23T22:52:57.353Z,87391.40
2019-05-23T22:55:24.080Z,87391.36
2019-05-23T22:57:50.863Z,87391.70
2019-05-23T23:00:17.700Z,87391.30
2019-05-23T23:02:46.067Z,87394.86
2019-05-23T23:05:13.526Z,87392.53
2019-05-23T23:07:40.256Z,87394.78
2019-05-23T23:10:07.504Z,87392.88
2019-05-23T23:12:34.496Z,87394.36
2019-05-23T23:15:01.226Z,87392.09
2019-05-23T23:17:29.247Z,87395.45
2019-05-23T23:19:56.117Z,87390.02
2019-05-23T23:22:22.876Z,87393.19
2019-05-23T23:24:49.726Z,87390.77
2019-05-23T23:27:16.598Z,87390.35
2019-05-23T23:29:43.429Z,87390.89
2019-05-23T23:32:10.167Z,87387.47
2019-05-23T23:34:37.048Z,87390.44
2019-05-23T23:37:03.786Z,87386.45
2019-05-23T23:39:30.480Z,87385.48
2019-05-23T23:41:57.335Z,87388.47
2019-05-23T23:44:24.114Z,87389.92
2019-05-23T23:46:50.939Z,87388.39
2019-05-23T23:49:17.832Z,87385.75
2019-05-23T23:51:44.534Z,87391.57
2019-05-23T23:54:11.296Z,87385.69
2019-05-23T23:56:38.159Z,87382.07
2019-05-23T23:59:04.897Z,87385.79
